createdAt,value
2022-08-05T00:00:46.352Z,25.70
2022-08-05T00:03:15.861Z,25.60
2022-08-05T00:06:05.495Z,25.60
2022-08-05T00:08:35.515Z,25.50
2022-08-05T00:11:20.694Z,25.50
2022-08-05T00:13:59.292Z,25.40
2022-08-05T00:16:36.522Z,25.40
2022-08-05T00:19:16.351Z,25.30
2022-08-05T00:21:49.710Z,25.30
2022-08-05T00:24:19.239Z,25.30
2022-08-05T00:26:54.811Z,25.20
2022-08-05T00:29:25.404Z,25.30
2022-08-05T00:32:13.529Z,25.10
2022-08-05T00:35:05.436Z,25.20
2022-08-05T00:37:35.373Z,25.10
2022-08-05T00:40:26.886Z,25.10
2022-08-05T00:43:00.873Z,25.10
2022-08-05T00:45:38.294Z,24.90
2022-08-05T00:48:09.453Z,25.00
2022-08-05T00:50:41.274Z,24.80
2022-08-05T00:53:45.166Z,24.90
2022-08-05T00:56:01.758Z,24.90
2022-08-05T00:58:31.298Z,24.90
2022-08-05T01:01:00.165Z,24.80
2022-08-05T01:03:30.929Z,24.80
2022-08-05T01:06:02.588Z,24.70
2022-08-05T01:08:43.103Z,24.60
2022-08-05T01:11:22.390Z,24.50
2022-08-05T01:14:08.814Z,24.60
2022-08-05T01:16:52.426Z,24.50
2022-08-05T01:20:00.894Z,24.50
2022-08-05T01:22:41.389Z,24.50
2022-08-05T01:25:53.418Z,24.40
2022-08-05T01:28:39.696Z,24.40
2022-08-05T01:31:27.791Z,24.30
2022-08-05T01:34:04.003Z,24.30
2022-08-05T01:36:42.152Z,24.30
2022-08-05T01:39:45.651Z,24.20
2022-08-05T01:42:10.167Z,24.10
2022-08-05T01:44:54.331Z,24.10
2022-08-05T01:47:38.633Z,24.10
2022-08-05T01:50:15.542Z,24.00
2022-08-05T01:52:49.901Z,24.00
2022-08-05T01:55:23.285Z,23.90
2022-08-05T01:58:10.721Z,23.90
2022-08-05T02:00:50.078Z,23.80
2022-08-05T02:03:31.468Z,23.90
2022-08-05T02:06:33.470Z,23.80
2022-08-05T02:08:58.510Z,23.70
2022-08-05T02:11:32.754Z,23.70
2022-08-05T02:14:12.325Z,23.70
2022-08-05T02:16:53.083Z,23.60
2022-08-05T02:19:34.390Z,23.50
2022-08-05T02:22:25.784Z,23.50
2022-08-05T02:25:04.440Z,23.50
2022-08-05T02:27:59.866Z,23.50
2022-08-05T02:30:31.975Z,23.40
2022-08-05T02:33:06.804Z,23.40
2022-08-05T02:35:44.924Z,23.30
2022-08-05T02:38:26.953Z,23.30
2022-08-05T02:41:17.170Z,23.30
2022-08-05T02:44:02.726Z,23.20
2022-08-05T02:46:36.187Z,23.20
2022-08-05T02:49:25.316Z,23.20
2022-08-05T02:52:04.441Z,23.20
2022-08-05T02:54:35.944Z,23.10
2022-08-05T02:57:10.145Z,23.10
2022-08-05T02:59:57.628Z,23.00
2022-08-05T03:02:34.986Z,22.90
2022-08-05T03:05:08.665Z,22.90
2022-08-05T03:08:01.649Z,22.90
2022-08-05T03:10:28.875Z,22.80
2022-08-05T03:15:24.763Z,22.80
2022-08-05T03:17:55.531Z,22.70
2022-08-05T03:20:26.440Z,22.70
2022-08-05T03:22:58.046Z,22.90
2022-08-05T03:25:32.860Z,22.60
2022-08-05T03:28:18.857Z,22.50
2022-08-05T03:30:50.827Z,22.60
2022-08-05T03:33:19.680Z,22.70
2022-08-05T03:35:51.605Z,22.50
2022-08-05T03:38:32.590Z,22.50
2022-08-05T03:41:08.211Z,22.40
2022-08-05T03:44:08.881Z,22.40
2022-08-05T03:46:26.857Z,22.30
2022-08-05T03:48:59.343Z,22.30
2022-08-05T03:52:49.325Z,22.30
2022-08-05T03:55:53.702Z,22.30
2022-08-05T03:57:41.500Z,22.30
2022-08-05T04:00:16.164Z,22.40
2022-08-05T04:02:58.135Z,22.40
2022-08-05T04:05:34.053Z,22.40
2022-08-05T04:08:14.708Z,22.40
2022-08-05T04:10:58.143Z,22.40
2022-08-05T04:13:49.353Z,22.50
2022-08-05T04:16:15.722Z,22.50
2022-08-05T04:18:54.406Z,22.50
2022-08-05T04:22:10.006Z,22.50
2022-08-05T04:24:18.884Z,22.60
2022-08-05T04:26:50.852Z,22.60
2022-08-05T04:29:19.953Z,22.70
2022-08-05T04:31:48.206Z,22.70
2022-08-05T04:34:29.554Z,22.80
2022-08-05T04:37:03.137Z,22.80
2022-08-05T04:39:35.425Z,22.90
2022-08-05T04:42:04.464Z,23.00
2022-08-05T04:44:32.722Z,23.10
2022-08-05T04:47:09.955Z,23.30
2022-08-05T04:50:01.290Z,23.30
2022-08-05T04:52:28.509Z,23.50
2022-08-05T04:54:58.918Z,23.70
2022-08-05T04:57:42.256Z,23.70
2022-08-05T05:00:17.389Z,23.70
2022-08-05T05:02:47.340Z,23.80
2022-08-05T05:05:16.908Z,24.00
2022-08-05T05:08:02.104Z,24.10
2022-08-05T05:10:34.525Z,24.20
2022-08-05T05:13:03.699Z,24.50
2022-08-05T05:15:56.521Z,24.60
2022-08-05T05:18:31.559Z,24.80
2022-08-05T05:21:03.070Z,24.90
2022-08-05T05:24:01.832Z,24.90
2022-08-05T05:26:28.556Z,25.10
2022-08-05T05:29:02.549Z,25.10
2022-08-05T05:34:05.419Z,25.10
2022-08-05T05:36:33.567Z,25.20
2022-08-05T05:39:06.566Z,25.30
2022-08-05T05:41:41.888Z,25.40
2022-08-05T05:44:35.639Z,25.50
2022-08-05T05:47:04.186Z,25.60
2022-08-05T05:49:33.408Z,25.70
2022-08-05T05:52:05.863Z,25.70
2022-08-05T05:54:50.128Z,26.00
2022-08-05T05:57:20.834Z,26.00
2022-08-05T05:59:49.218Z,26.10
2022-08-05T06:02:32.575Z,26.30
2022-08-05T06:05:10.372Z,26.60
2022-08-05T06:07:57.594Z,27.00
2022-08-05T06:10:36.601Z,27.10
2022-08-05T06:13:07.060Z,27.00
2022-08-05T06:16:30.073Z,26.80
2022-08-05T06:18:30.764Z,26.60
2022-08-05T06:21:00.539Z,26.50
2022-08-05T06:23:43.777Z,26.70
2022-08-05T06:26:21.455Z,26.80
2022-08-05T06:28:54.430Z,27.00
2022-08-05T06:31:22.690Z,26.60
2022-08-05T06:34:07.001Z,26.90
2022-08-05T06:36:53.602Z,27.20
2022-08-05T06:39:27.288Z,27.30
2022-08-05T06:41:58.866Z,27.50
2022-08-05T06:44:28.838Z,27.60
2022-08-05T06:46:57.463Z,27.80
2022-08-05T06:50:01.149Z,27.90
2022-08-05T06:52:36.863Z,27.60
2022-08-05T06:55:02.974Z,27.60
2022-08-05T06:58:03.027Z,27.90
2022-08-05T07:00:22.106Z,28.20
2022-08-05T07:02:53.754Z,28.40
2022-08-05T07:05:37.494Z,28.50
2022-08-05T07:08:10.674Z,28.60
2022-08-05T07:10:53.023Z,28.80
2022-08-05T07:13:58.735Z,28.70
2022-08-05T07:18:00.996Z,28.60
2022-08-05T07:22:28.322Z,29.00
2022-08-05T07:25:23.831Z,28.70
2022-08-05T07:27:56.546Z,28.60
2022-08-05T07:30:32.174Z,28.70
2022-08-05T07:33:05.323Z,28.40
2022-08-05T07:36:05.113Z,28.30
2022-08-05T07:38:33.847Z,28.50
2022-08-05T07:41:35.026Z,28.80
2022-08-05T07:43:56.617Z,29.10
2022-08-05T07:46:26.762Z,29.40
2022-08-05T07:49:01.472Z,29.60
2022-08-05T07:51:36.889Z,29.70
2022-08-05T07:54:11.478Z,29.70
2022-08-05T07:57:02.613Z,29.60
2022-08-05T07:59:38.871Z,29.70
2022-08-05T08:02:15.600Z,30.20
2022-08-05T08:04:48.715Z,30.20
2022-08-05T08:07:22.747Z,30.00
2022-08-05T08:09:55.171Z,30.10
2022-08-05T08:12:33.377Z,30.00
2022-08-05T08:15:09.759Z,30.10
2022-08-05T08:17:46.218Z,30.40
2022-08-05T08:20:43.594Z,30.80
2022-08-05T08:24:01.070Z,30.70
2022-08-05T08:26:02.740Z,30.70
2022-08-05T08:28:36.334Z,30.40
2022-08-05T08:31:06.829Z,30.80
2022-08-05T08:33:38.091Z,31.20
2022-08-05T08:38:58.100Z,31.30
2022-08-05T08:41:51.783Z,31.20
2022-08-05T08:45:19.288Z,31.40
2022-08-05T08:47:47.779Z,31.50
2022-08-05T08:50:30.694Z,31.50
2022-08-05T08:53:07.969Z,31.40
2022-08-05T08:56:05.105Z,31.10
2022-08-05T08:58:43.949Z,31.20
2022-08-05T09:01:18.631Z,31.50
2022-08-05T09:03:52.920Z,31.70
2022-08-05T09:06:29.929Z,31.60
2022-08-05T09:09:01.893Z,31.80
2022-08-05T09:11:53.341Z,31.90
2022-08-05T09:14:57.338Z,32.10
2022-08-05T09:17:16.077Z,31.70
2022-08-05T09:20:04.904Z,31.80
2022-08-05T09:23:18.746Z,31.80
2022-08-05T09:26:02.122Z,31.70
2022-08-05T09:28:34.688Z,31.70
2022-08-05T09:32:39.272Z,32.20
2022-08-05T09:33:59.602Z,32.10
2022-08-05T09:36:54.493Z,32.00
2022-08-05T09:39:27.552Z,31.80
2022-08-05T09:42:13.551Z,32.20
2022-08-05T09:44:56.148Z,32.60
2022-08-05T09:47:48.152Z,32.90
2022-08-05T09:50:37.594Z,32.70
2022-08-05T09:53:09.154Z,33.00
2022-08-05T09:55:57.458Z,33.50
2022-08-05T09:58:29.614Z,33.60
2022-08-05T10:01:15.310Z,34.10
2022-08-05T10:04:00.302Z,34.40
2022-08-05T10:06:29.216Z,34.30
2022-08-05T10:09:27.294Z,34.10
2022-08-05T10:12:30.948Z,34.00
2022-08-05T10:15:20.580Z,33.60
2022-08-05T10:18:14.188Z,33.40
2022-08-05T10:20:48.698Z,32.60
2022-08-05T10:23:55.392Z,32.80
2022-08-05T10:26:14.165Z,32.80
2022-08-05T10:28:45.064Z,32.70
2022-08-05T10:32:50.555Z,32.70
2022-08-05T10:34:08.080Z,32.70
2022-08-05T10:36:38.302Z,32.50
2022-08-05T10:39:24.859Z,32.40
2022-08-05T10:42:13.351Z,32.30
2022-08-05T10:44:47.109Z,32.30
2022-08-05T10:47:26.770Z,32.60
2022-08-05T10:50:31.902Z,32.90
2022-08-05T10:52:59.814Z,32.50
2022-08-05T10:55:30.474Z,32.70
2022-08-05T10:58:11.720Z,32.80
2022-08-05T11:00:48.471Z,32.30
2022-08-05T11:03:27.125Z,32.50
2022-08-05T11:06:15.032Z,32.60
2022-08-05T11:09:24.499Z,32.90
2022-08-05T11:12:50.449Z,32.80
2022-08-05T11:15:23.055Z,32.90
2022-08-05T11:17:59.261Z,32.80
2022-08-05T11:20:53.108Z,33.40
2022-08-05T11:24:05.751Z,33.50
2022-08-05T11:26:28.420Z,34.10
2022-08-05T11:29:11.600Z,34.30
2022-08-05T11:31:54.040Z,33.90
2022-08-05T11:34:51.032Z,33.50
2022-08-05T11:38:30.134Z,33.90
2022-08-05T11:41:35.529Z,33.80
2022-08-05T11:44:06.534Z,33.80
2022-08-05T11:47:09.467Z,33.50
2022-08-05T11:49:28.966Z,33.70
2022-08-05T11:52:11.234Z,34.00
2022-08-05T11:54:41.833Z,34.10
2022-08-05T11:57:24.420Z,34.20
2022-08-05T11:59:54.413Z,34.00
2022-08-05T12:02:31.633Z,34.10
2022-08-05T12:05:07.662Z,33.90
2022-08-05T12:08:07.485Z,33.60
2022-08-05T12:10:38.517Z,33.50
2022-08-05T12:13:18.936Z,33.30
2022-08-05T12:16:04.096Z,33.00
2022-08-05T12:18:48.693Z,32.70
2022-08-05T12:21:29.607Z,32.30
2022-08-05T12:24:06.959Z,32.20
2022-08-05T12:26:39.378Z,32.00
2022-08-05T12:29:16.260Z,31.70
2022-08-05T12:31:53.634Z,31.30
2022-08-05T12:34:28.210Z,30.90
2022-08-05T12:36:59.007Z,30.70
2022-08-05T12:39:37.282Z,30.50
2022-08-05T12:42:15.201Z,30.40
2022-08-05T12:44:45.934Z,30.40
2022-08-05T12:47:28.835Z,30.30
2022-08-05T12:50:06.177Z,30.10
2022-08-05T12:52:41.962Z,30.00
2022-08-05T12:55:23.826Z,29.70
2022-08-05T12:58:50.693Z,29.60
2022-08-05T13:02:00.873Z,29.20
2022-08-05T13:03:42.464Z,28.50
2022-08-05T13:06:17.679Z,27.70
2022-08-05T13:08:51.444Z,27.50
2022-08-05T13:11:59.982Z,27.20
2022-08-05T13:14:24.746Z,27.20
2022-08-05T13:17:10.221Z,27.40
2022-08-05T13:19:52.149Z,27.30
2022-08-05T13:22:29.469Z,27.50
2022-08-05T13:25:00.619Z,27.80
2022-08-05T13:27:35.545Z,28.00
2022-08-05T13:30:35.314Z,27.80
2022-08-05T13:33:01.791Z,27.90
2022-08-05T13:35:47.034Z,27.90
2022-08-05T13:38:30.823Z,28.20
2022-08-05T13:41:04.804Z,28.50
2022-08-05T13:43:44.021Z,28.80
2022-08-05T13:46:30.656Z,29.00
2022-08-05T13:49:10.435Z,30.30
2022-08-05T13:51:45.909Z,31.10
2022-08-05T13:54:21.178Z,32.00
2022-08-05T13:56:54.786Z,32.50
2022-08-05T13:59:27.029Z,32.70
2022-08-05T14:02:00.344Z,32.90
2022-08-05T14:04:51.163Z,33.30
2022-08-05T14:08:00.348Z,33.40
2022-08-05T14:10:18.410Z,34.00
2022-08-05T14:12:48.725Z,33.60
2022-08-05T14:16:08.684Z,33.70
2022-08-05T14:18:17.528Z,33.90
2022-08-05T14:20:48.348Z,34.30
2022-08-05T14:23:23.477Z,34.40
2022-08-05T14:25:54.608Z,34.40
2022-08-05T14:28:28.844Z,34.20
2022-08-05T14:30:57.357Z,34.80
2022-08-05T14:33:27.053Z,35.20
2022-08-05T14:36:02.789Z,35.20
2022-08-05T14:38:34.251Z,34.70
2022-08-05T14:41:07.648Z,34.80
2022-08-05T14:44:01.594Z,34.90
2022-08-05T14:46:28.892Z,34.80
2022-08-05T14:49:06.766Z,35.50
2022-08-05T14:51:42.798Z,34.70
2022-08-05T14:54:29.965Z,33.80
2022-08-05T14:57:00.928Z,32.70
2022-08-05T14:59:35.588Z,31.80
2022-08-05T15:02:14.725Z,31.20
2022-08-05T15:04:49.905Z,31.00
2022-08-05T15:08:12.251Z,30.00
2022-08-05T15:10:09.753Z,30.60
2022-08-05T15:12:59.750Z,32.40
2022-08-05T15:15:54.960Z,33.80
2022-08-05T15:18:18.033Z,34.10
2022-08-05T15:20:47.769Z,34.80
2022-08-05T15:23:16.124Z,34.50
2022-08-05T15:25:52.302Z,34.20
2022-08-05T15:28:27.120Z,33.50
2022-08-05T15:30:56.718Z,32.70
2022-08-05T15:33:56.734Z,31.80
2022-08-05T15:36:17.204Z,31.30
2022-08-05T15:38:46.871Z,30.80
2022-08-05T15:41:22.464Z,30.60
2022-08-05T15:43:52.265Z,31.10
2022-08-05T15:46:24.635Z,31.20
2022-08-05T15:49:00.671Z,31.00
2022-08-05T15:52:09.872Z,31.10
2022-08-05T15:54:20.294Z,31.30
2022-08-05T15:57:03.740Z,31.40
2022-08-05T15:59:38.233Z,31.10
2022-08-05T16:02:14.463Z,30.70
2022-08-05T16:04:44.013Z,30.40
2022-08-05T16:07:13.860Z,30.20
2022-08-05T16:09:43.713Z,30.00
2022-08-05T16:12:12.280Z,29.80
2022-08-05T16:14:41.024Z,29.70
2022-08-05T16:17:10.221Z,29.50
2022-08-05T16:20:10.968Z,29.40
2022-08-05T16:22:34.461Z,29.30
2022-08-05T16:25:08.187Z,29.20
2022-08-05T16:27:59.852Z,29.00
2022-08-05T16:30:29.301Z,28.90
2022-08-05T16:32:58.221Z,28.90
2022-08-05T16:35:27.678Z,28.80
2022-08-05T16:38:16.827Z,28.70
2022-08-05T16:40:55.330Z,28.60
2022-08-05T16:43:30.336Z,28.50
2022-08-05T16:46:04.312Z,28.50
2022-08-05T16:48:39.087Z,28.40
2022-08-05T16:51:09.267Z,28.40
2022-08-05T16:54:04.215Z,28.30
2022-08-05T16:56:33.916Z,28.30
2022-08-05T16:59:08.482Z,28.20
2022-08-05T17:01:54.024Z,29.20
2022-08-05T17:04:29.086Z,27.70
2022-08-05T17:07:03.112Z,28.10
2022-08-05T17:09:38.869Z,27.90
2022-08-05T17:12:22.525Z,27.90
2022-08-05T17:15:15.541Z,27.90
2022-08-05T17:17:44.386Z,27.80
2022-08-05T17:20:16.597Z,27.70
2022-08-05T17:22:45.021Z,27.80
2022-08-05T17:25:33.564Z,27.80
2022-08-05T17:28:02.919Z,27.70
2022-08-05T17:30:31.505Z,27.60
2022-08-05T17:32:59.739Z,27.50
2022-08-05T17:35:32.567Z,27.40
2022-08-05T17:38:17.527Z,27.50
2022-08-05T17:40:47.628Z,27.30
2022-08-05T17:43:17.951Z,27.20
2022-08-05T17:46:06.335Z,27.20
2022-08-05T17:48:38.443Z,27.10
2022-08-05T17:51:09.240Z,27.00
2022-08-05T17:53:39.354Z,27.00
2022-08-05T17:56:13.292Z,26.60
2022-08-05T17:58:46.034Z,26.40
2022-08-05T18:01:14.175Z,26.30
2022-08-05T18:03:56.203Z,26.20
2022-08-05T18:06:29.410Z,26.10
2022-08-05T18:08:59.449Z,25.90
2022-08-05T18:11:33.453Z,25.80
2022-08-05T18:14:07.187Z,25.70
2022-08-05T18:16:51.280Z,25.60
2022-08-05T18:19:22.843Z,25.60
2022-08-05T18:22:07.733Z,25.50
2022-08-05T18:24:39.544Z,25.60
2022-08-05T18:27:12.511Z,25.50
2022-08-05T18:29:53.720Z,24.70
2022-08-05T18:32:27.997Z,25.40
2022-08-05T18:34:58.344Z,25.20
2022-08-05T18:37:34.768Z,25.10
2022-08-05T18:41:03.363Z,25.00
2022-08-05T18:43:00.368Z,24.90
2022-08-05T18:45:40.961Z,24.80
2022-08-05T18:48:11.915Z,24.70
2022-08-05T18:52:06.555Z,24.70
2022-08-05T18:53:51.808Z,24.70
2022-08-05T18:56:21.734Z,24.50
2022-08-05T18:59:01.145Z,24.50
2022-08-05T19:01:47.180Z,24.40
2022-08-05T19:04:24.087Z,24.20
2022-08-05T19:06:53.790Z,23.80
2022-08-05T19:09:22.659Z,23.50
2022-08-05T19:12:00.494Z,23.20
2022-08-05T19:14:59.594Z,22.90
2022-08-05T19:17:20.101Z,22.70
2022-08-05T19:19:50.789Z,22.70
2022-08-05T19:22:22.898Z,22.50
2022-08-05T19:25:00.671Z,22.50
2022-08-05T19:27:30.930Z,22.30
2022-08-05T19:30:02.945Z,22.20
2022-08-05T19:32:32.350Z,22.00
2022-08-05T19:35:05.612Z,22.40
2022-08-05T19:38:04.315Z,21.70
2022-08-05T19:40:24.125Z,21.50
2022-08-05T19:43:04.586Z,21.40
2022-08-05T19:45:36.754Z,21.40
2022-08-05T19:48:06.755Z,21.40
2022-08-05T19:50:43.587Z,21.40
2022-08-05T19:53:12.301Z,21.30
2022-08-05T19:56:14.066Z,21.20
2022-08-05T19:58:30.107Z,21.10
2022-08-05T20:01:00.158Z,21.10
2022-08-05T20:03:40.662Z,21.00
2022-08-05T20:06:11.659Z,21.00
2022-08-05T20:08:47.554Z,20.80
2022-08-05T20:11:17.995Z,20.80
2022-08-05T20:13:58.367Z,20.70
2022-08-05T20:16:28.798Z,20.50
2022-08-05T20:18:57.957Z,20.50
2022-08-05T20:21:29.032Z,20.50
2022-08-05T20:23:59.976Z,20.50
2022-08-05T20:26:28.514Z,20.40
2022-08-05T20:29:00.850Z,20.50
2022-08-05T20:31:42.752Z,21.20
2022-08-05T20:34:19.459Z,20.50
2022-08-05T20:36:48.342Z,20.50
2022-08-05T20:39:17.067Z,20.50
2022-08-05T20:41:47.700Z,20.50
2022-08-05T20:44:29.922Z,21.20
2022-08-05T20:47:03.418Z,20.50
2022-08-05T20:49:33.246Z,20.40
2022-08-05T20:52:10.700Z,20.40
2022-08-05T20:54:42.805Z,20.30
2022-08-05T20:57:43.408Z,20.00
2022-08-05T21:00:40.172Z,19.80
2022-08-05T21:03:08.262Z,19.50
2022-08-05T21:05:53.941Z,19.70
2022-08-05T21:08:26.515Z,19.60
2022-08-05T21:11:09.035Z,19.60
2022-08-05T21:13:48.276Z,19.40
2022-08-05T21:16:29.346Z,19.40
2022-08-05T21:19:01.151Z,19.40
2022-08-05T21:21:39.473Z,19.50
2022-08-05T21:24:15.482Z,19.50
2022-08-05T21:26:47.391Z,19.50
2022-08-05T21:29:23.388Z,19.50
2022-08-05T21:31:51.953Z,19.50
2022-08-05T21:34:23.055Z,19.50
2022-08-05T21:36:52.559Z,19.50
2022-08-05T21:39:26.542Z,19.50
2022-08-05T21:42:01.260Z,19.60
2022-08-05T21:44:31.016Z,19.50
2022-08-05T21:47:00.501Z,19.60
2022-08-05T21:49:56.570Z,19.60
2022-08-05T21:52:27.451Z,19.70
2022-08-05T21:54:57.652Z,19.30
2022-08-05T21:57:34.683Z,19.30
2022-08-05T22:00:10.661Z,19.40
2022-08-05T22:02:39.916Z,19.30
2022-08-05T22:05:12.402Z,19.30
2022-08-05T22:07:58.270Z,19.30
2022-08-05T22:10:28.294Z,19.40
2022-08-05T22:12:58.866Z,19.40
2022-08-05T22:16:00.990Z,19.30
2022-08-05T22:18:19.497Z,19.30
2022-08-05T22:20:51.606Z,19.30
2022-08-05T22:24:02.453Z,19.30
2022-08-05T22:26:49.997Z,19.20
2022-08-05T22:29:26.619Z,19.20
2022-08-05T22:32:02.559Z,19.10
2022-08-05T22:34:32.178Z,19.00
2022-08-05T22:37:04.036Z,18.90
2022-08-05T22:39:35.021Z,19.00
2022-08-05T22:42:10.353Z,19.00
2022-08-05T22:44:40.201Z,19.00
2022-08-05T22:47:08.447Z,19.00
2022-08-05T22:50:18.014Z,19.10
2022-08-05T22:52:32.712Z,19.00
2022-08-05T22:55:04.218Z,18.90
2022-08-05T22:57:46.669Z,19.00
2022-08-05T23:00:20.927Z,18.80
2022-08-05T23:02:50.617Z,18.90
2022-08-05T23:05:21.957Z,18.90
2022-08-05T23:07:52.436Z,18.80
2022-08-05T23:10:24.004Z,18.80
2022-08-05T23:12:55.031Z,18.80
2022-08-05T23:15:29.149Z,18.70
2022-08-05T23:18:03.160Z,18.70
2022-08-05T23:20:37.553Z,18.70
2022-08-05T23:23:08.958Z,18.70
2022-08-05T23:25:53.572Z,18.60
2022-08-05T23:28:28.866Z,18.60
2022-08-05T23:31:15.808Z,18.60
2022-08-05T23:34:03.805Z,18.60
2022-08-05T23:36:40.197Z,18.50
2022-08-05T23:39:17.243Z,18.50
2022-08-05T23:42:00.273Z,18.50
2022-08-05T23:44:31.327Z,18.10
2022-08-05T23:47:02.437Z,18.30
2022-08-05T23:49:35.875Z,18.30
2022-08-05T23:52:25.294Z,18.30
2022-08-05T23:54:56.359Z,18.20
2022-08-05T23:57:28.053Z,18.20
